createdAt,value
2018-12-31T00:01:51.041Z,102020.13
2018-12-31T00:04:17.793Z,102017.94
2018-12-31T00:06:44.548Z,102027.05
2018-12-31T00:09:11.324Z,102019.89
2018-12-31T00:11:38.094Z,102024.08
2018-12-31T00:14:04.836Z,102022.12
2018-12-31T00:16:31.594Z,102028.78
2018-12-31T00:18:58.336Z,102028.32
2018-12-31T00:21:25.075Z,102033.20
2018-12-31T00:23:51.980Z,102035.54
2018-12-31T00:26:18.731Z,102044.67
2018-12-31T00:28:45.494Z,102046.79
2018-12-31T00:31:12.228Z,102046.23
2018-12-31T00:33:39.017Z,102031.47
2018-12-31T00:36:05.844Z,102032.45
2018-12-31T00:38:32.607Z,102034.05
2018-12-31T00:40:59.358Z,102040.11
2018-12-31T00:43:26.139Z,102037.11
2018-12-31T00:45:52.876Z,102033.05
2018-12-31T00:48:19.640Z,102033.94
2018-12-31T00:50:46.412Z,102041.45
2018-12-31T00:53:13.176Z,102044.42
2018-12-31T00:55:39.925Z,102047.53
2018-12-31T00:58:06.725Z,102039.48
2018-12-31T01:00:33.456Z,102038.72
2018-12-31T01:03:00.232Z,102036.06
2018-12-31T01:05:26.985Z,102034.39
2018-12-31T01:07:53.806Z,102038.60
2018-12-31T01:10:20.556Z,102032.98
2018-12-31T01:12:47.316Z,102035.95
2018-12-31T01:15:14.056Z,102031.25
2018-12-31T01:17:40.843Z,102034.91
2018-12-31T01:20:07.588Z,102040.39
2018-12-31T01:22:34.476Z,102034.64
2018-12-31T01:25:01.213Z,102036.06
2018-12-31T01:27:27.967Z,102032.51
2018-12-31T01:29:54.725Z,102031.74
2018-12-31T01:32:21.499Z,102028.19
2018-12-31T01:34:48.245Z,102036.38
2018-12-31T01:37:14.993Z,102035.75
2018-12-31T01:39:41.844Z,102041.98
2018-12-31T01:42:08.584Z,102036.30
2018-12-31T01:44:35.392Z,102034.61
2018-12-31T01:47:02.141Z,102040.23
2018-12-31T01:49:28.909Z,102038.18
2018-12-31T01:51:55.648Z,102044.21
2018-12-31T01:54:22.408Z,102042.68
2018-12-31T01:56:49.153Z,102034.96
2018-12-31T01:59:15.911Z,102038.58
2018-12-31T02:01:42.662Z,102035.98
2018-12-31T02:04:09.433Z,102042.47
2018-12-31T02:06:36.171Z,102043.20
2018-12-31T02:09:03.973Z,102034.86
2018-12-31T02:11:30.713Z,102033.58
2018-12-31T02:13:57.484Z,102031.89
2018-12-31T02:16:24.224Z,102039.50
2018-12-31T02:18:51.136Z,102025.55
2018-12-31T02:21:17.896Z,102029.11
2018-12-31T02:23:44.676Z,102029.69
2018-12-31T02:26:11.416Z,102038.98
2018-12-31T02:28:38.194Z,102031.59
2018-12-31T02:31:04.921Z,102034.20
2018-12-31T02:33:31.680Z,102033.52
2018-12-31T02:35:58.424Z,102038.33
2018-12-31T02:38:25.187Z,102030.45
2018-12-31T02:40:51.945Z,102030.34
2018-12-31T02:43:18.755Z,102024.42
2018-12-31T02:45:45.451Z,102022.67
2018-12-31T02:48:12.252Z,102029.30
2018-12-31T02:50:39.012Z,102035.62
2018-12-31T02:53:05.760Z,102027.44
2018-12-31T02:55:32.528Z,102031.14
2018-12-31T02:57:59.272Z,102028.19
2018-12-31T03:00:26.040Z,102028.66
2018-12-31T03:02:52.777Z,102024.09
2018-12-31T03:05:19.554Z,102020.05
2018-12-31T03:07:46.295Z,102017.04
2018-12-31T03:10:13.047Z,102007.62
2018-12-31T03:12:39.797Z,102011.06
2018-12-31T03:15:06.567Z,102016.33
2018-12-31T03:17:33.304Z,102007.17
2018-12-31T03:20:00.128Z,102000.23
2018-12-31T03:22:26.816Z,102001.91
2018-12-31T03:24:53.585Z,102010.59
2018-12-31T03:27:20.312Z,102006.09
2018-12-31T03:29:47.089Z,102005.84
2018-12-31T03:32:13.822Z,101999.26
2018-12-31T03:34:40.594Z,102001.00
2018-12-31T03:37:07.551Z,101995.91
2018-12-31T03:39:34.312Z,102002.36
2018-12-31T03:42:01.063Z,101993.96
2018-12-31T03:44:27.919Z,101997.61
2018-12-31T03:46:54.653Z,101997.13
2018-12-31T03:49:21.412Z,101999.78
2018-12-31T03:51:48.156Z,102002.52
2018-12-31T03:54:14.909Z,102001.58
2018-12-31T03:56:41.664Z,101997.30
2018-12-31T03:59:08.416Z,101999.59
2018-12-31T04:01:35.172Z,102000.86
2018-12-31T04:04:01.928Z,101993.75
2018-12-31T04:06:28.697Z,101982.13
2018-12-31T04:08:55.443Z,101979.26
2018-12-31T04:11:22.200Z,101976.45
2018-12-31T04:13:48.932Z,101978.78
2018-12-31T04:16:15.703Z,101983.66
2018-12-31T04:18:42.460Z,101986.00
2018-12-31T04:21:09.228Z,101987.38
2018-12-31T04:23:35.974Z,101989.78
2018-12-31T04:26:02.740Z,101987.88
2018-12-31T04:28:29.480Z,101990.10
2018-12-31T04:30:57.725Z,101985.25
2018-12-31T04:33:24.421Z,101989.40
2018-12-31T04:35:51.177Z,101986.05
2018-12-31T04:38:17.929Z,101987.86
2018-12-31T04:40:44.697Z,101986.58
2018-12-31T04:43:11.440Z,101981.69
2018-12-31T04:45:38.249Z,101996.22
2018-12-31T04:48:05.008Z,101994.66
2018-12-31T04:50:31.761Z,101996.78
2018-12-31T04:52:58.496Z,102001.84
2018-12-31T04:55:25.264Z,102006.27
2018-12-31T04:57:52.112Z,101996.59
2018-12-31T05:00:18.891Z,101991.82
2018-12-31T05:02:45.633Z,101989.08
2018-12-31T05:05:12.390Z,101987.51
2018-12-31T05:07:39.135Z,101978.62
2018-12-31T05:10:05.927Z,101983.92
2018-12-31T05:12:32.685Z,101977.25
2018-12-31T05:14:59.429Z,101979.38
2018-12-31T05:17:26.196Z,101985.16
2018-12-31T05:19:52.974Z,101974.45
2018-12-31T05:22:19.756Z,101978.73
2018-12-31T05:24:46.511Z,101979.83
2018-12-31T05:27:13.272Z,101979.80
2018-12-31T05:29:40.028Z,101977.95
2018-12-31T05:32:06.795Z,101987.77
2018-12-31T05:34:33.552Z,101986.97
2018-12-31T05:37:00.309Z,101988.53
2018-12-31T05:39:27.057Z,101989.45
2018-12-31T05:41:53.812Z,101995.17
2018-12-31T05:44:20.554Z,101993.50
2018-12-31T05:46:47.304Z,101994.70
2018-12-31T05:49:14.077Z,101997.61
2018-12-31T05:51:40.845Z,102000.95
2018-12-31T05:54:07.600Z,102013.02
2018-12-31T05:56:34.376Z,102003.61
2018-12-31T05:59:01.138Z,102013.23
2018-12-31T06:01:27.887Z,102014.52
2018-12-31T06:03:54.637Z,102019.53
2018-12-31T06:06:21.404Z,102013.70
2018-12-31T06:08:48.152Z,102017.34
2018-12-31T06:11:14.912Z,102021.52
2018-12-31T06:13:41.665Z,102023.41
2018-12-31T06:16:08.432Z,102025.45
2018-12-31T06:18:35.169Z,102022.34
2018-12-31T06:21:02.140Z,102021.03
2018-12-31T06:23:28.886Z,102019.63
2018-12-31T06:25:55.646Z,102020.14
2018-12-31T06:28:22.397Z,102018.91
2018-12-31T06:30:49.133Z,102025.08
2018-12-31T06:33:15.904Z,102032.30
2018-12-31T06:35:42.653Z,102030.45
2018-12-31T06:38:09.432Z,102032.72
2018-12-31T06:40:36.180Z,102043.41
2018-12-31T06:43:02.940Z,102056.25
2018-12-31T06:45:29.672Z,102053.28
2018-12-31T06:47:56.432Z,102046.77
2018-12-31T06:50:23.176Z,102044.84
2018-12-31T06:52:49.932Z,102049.62
2018-12-31T06:55:16.672Z,102057.02
2018-12-31T06:57:43.416Z,102051.99
2018-12-31T07:00:10.160Z,102053.53
2018-12-31T07:02:36.930Z,102057.33
2018-12-31T07:05:03.692Z,102058.48
2018-12-31T07:07:30.452Z,102063.31
2018-12-31T07:09:57.203Z,102068.89
2018-12-31T07:12:23.967Z,102075.63
2018-12-31T07:14:50.721Z,102070.85
2018-12-31T07:17:17.480Z,102075.56
2018-12-31T07:19:44.225Z,102080.56
2018-12-31T07:22:10.998Z,102075.88
2018-12-31T07:24:37.743Z,102079.82
2018-12-31T07:27:04.504Z,102086.80
2018-12-31T07:29:31.248Z,102090.02
2018-12-31T07:31:58.018Z,102100.86
2018-12-31T07:34:24.763Z,102100.25
2018-12-31T07:36:51.537Z,102096.52
2018-12-31T07:39:18.272Z,102092.86
2018-12-31T07:41:45.039Z,102095.94
2018-12-31T07:44:11.779Z,102093.79
2018-12-31T07:46:39.124Z,102096.22
2018-12-31T07:49:06.263Z,102108.22
2018-12-31T07:51:33.013Z,102111.44
2018-12-31T07:53:59.784Z,102118.19
2018-12-31T07:56:26.537Z,102113.28
2018-12-31T07:58:53.296Z,102112.47
2018-12-31T08:01:20.045Z,102104.58
2018-12-31T08:03:46.809Z,102115.67
2018-12-31T08:06:13.561Z,102108.96
2018-12-31T08:08:40.337Z,102113.45
2018-12-31T08:11:07.100Z,102104.84
2018-12-31T08:13:33.868Z,102106.78
2018-12-31T08:16:00.598Z,102111.68
2018-12-31T08:18:27.364Z,102109.80
2018-12-31T08:20:54.121Z,102104.65
2018-12-31T08:23:21.056Z,102103.62
2018-12-31T08:25:47.815Z,102104.59
2018-12-31T08:28:14.572Z,102109.31
2018-12-31T08:30:41.320Z,102110.42
2018-12-31T08:33:08.078Z,102115.70
2018-12-31T08:35:34.868Z,102122.22
2018-12-31T08:38:01.684Z,102134.75
2018-12-31T08:40:28.451Z,102129.56
2018-12-31T08:42:55.208Z,102131.22
2018-12-31T08:45:22.022Z,102128.84
2018-12-31T08:47:48.808Z,102126.83
2018-12-31T08:50:15.549Z,102135.80
2018-12-31T08:52:42.308Z,102134.95
2018-12-31T08:55:09.064Z,102134.85
2018-12-31T08:57:35.838Z,102138.03
2018-12-31T09:00:03.016Z,102137.57
2018-12-31T09:02:29.789Z,102140.61
2018-12-31T09:04:56.553Z,102137.22
2018-12-31T09:07:23.300Z,102133.44
2018-12-31T09:09:50.077Z,102131.61
2018-12-31T09:12:16.817Z,102137.27
2018-12-31T09:14:43.637Z,102126.34
2018-12-31T09:17:10.568Z,102133.30
2018-12-31T09:19:37.339Z,102135.50
2018-12-31T09:22:04.068Z,102139.22
2018-12-31T09:24:30.832Z,102136.70
2018-12-31T09:26:57.629Z,102130.14
2018-12-31T09:29:24.517Z,102126.72
2018-12-31T09:31:51.301Z,102124.00
2018-12-31T09:34:18.061Z,102114.76
2018-12-31T09:36:45.846Z,102117.30
2018-12-31T09:39:11.634Z,102122.47
2018-12-31T09:41:38.369Z,102118.39
2018-12-31T09:44:05.221Z,102130.52
2018-12-31T09:46:31.976Z,102124.91
2018-12-31T09:48:58.741Z,102113.30
2018-12-31T09:51:25.508Z,102115.28
2018-12-31T09:53:52.273Z,102122.13
2018-12-31T09:56:19.032Z,102123.62
2018-12-31T09:58:45.780Z,102129.73
2018-12-31T10:01:12.524Z,102132.16
2018-12-31T10:03:39.302Z,102126.46
2018-12-31T10:06:06.057Z,102125.98
2018-12-31T10:08:33.040Z,102125.43
2018-12-31T10:10:59.773Z,102116.04
2018-12-31T10:13:26.568Z,102113.75
2018-12-31T10:15:53.314Z,102116.12
2018-12-31T10:18:20.056Z,102114.53
2018-12-31T10:20:46.904Z,102113.38
2018-12-31T10:23:13.649Z,102119.03
2018-12-31T10:25:40.551Z,102122.07
2018-12-31T10:28:07.359Z,102114.08
2018-12-31T10:30:34.133Z,102112.23
2018-12-31T10:33:00.876Z,102114.09
2018-12-31T10:35:27.644Z,102103.34
2018-12-31T10:37:54.546Z,102118.25
2018-12-31T10:40:21.312Z,102110.39
2018-12-31T10:42:48.163Z,102098.03
2018-12-31T10:45:14.904Z,102094.14
2018-12-31T10:47:41.644Z,102092.00
2018-12-31T10:50:08.472Z,102089.48
2018-12-31T10:52:35.213Z,102088.27
2018-12-31T10:55:01.986Z,102086.72
2018-12-31T10:57:28.713Z,102078.34
2018-12-31T10:59:55.476Z,102076.64
2018-12-31T11:02:23.248Z,102073.53
2018-12-31T11:04:48.985Z,102068.69
2018-12-31T11:07:15.728Z,102066.69
2018-12-31T11:09:42.504Z,102058.87
2018-12-31T11:12:09.252Z,102063.82
2018-12-31T11:14:36.038Z,102069.93
2018-12-31T11:17:02.781Z,102071.11
2018-12-31T11:19:29.538Z,102067.61
2018-12-31T11:21:56.293Z,102066.50
2018-12-31T11:24:23.105Z,102065.55
2018-12-31T11:26:49.844Z,102062.09
2018-12-31T11:29:16.593Z,102061.95
2018-12-31T11:31:43.345Z,102054.41
2018-12-31T11:34:10.097Z,102052.41
2018-12-31T11:36:36.860Z,102048.14
2018-12-31T11:39:05.849Z,102049.55
2018-12-31T11:41:32.608Z,102049.25
2018-12-31T11:43:59.352Z,102046.89
2018-12-31T11:46:26.133Z,102042.30
2018-12-31T11:48:52.885Z,102042.73
2018-12-31T11:51:19.644Z,102030.98
2018-12-31T11:53:46.416Z,102018.48
2018-12-31T11:56:13.197Z,102007.13
2018-12-31T11:58:39.929Z,102003.16
2018-12-31T12:01:06.696Z,102000.83
2018-12-31T12:03:33.431Z,102007.67
2018-12-31T12:06:00.180Z,102004.98
2018-12-31T12:08:26.932Z,102006.63
2018-12-31T12:10:53.705Z,102012.96
2018-12-31T12:13:20.473Z,102017.20
2018-12-31T12:15:47.233Z,102013.54
2018-12-31T12:18:13.979Z,102014.16
2018-12-31T12:20:40.825Z,102014.53
2018-12-31T12:23:07.576Z,102013.48
2018-12-31T12:25:34.343Z,102011.34
2018-12-31T12:28:01.212Z,102007.49
2018-12-31T12:30:27.980Z,102003.95
2018-12-31T12:32:54.719Z,102001.06
2018-12-31T12:35:21.536Z,102005.27
2018-12-31T12:37:48.674Z,101997.92
2018-12-31T12:40:15.056Z,101992.22
2018-12-31T12:42:41.785Z,101990.38
2018-12-31T12:45:08.529Z,101991.06
2018-12-31T12:47:35.280Z,102001.66
2018-12-31T12:50:02.159Z,101991.64
2018-12-31T12:52:28.952Z,101995.98
2018-12-31T12:54:55.685Z,101998.76
2018-12-31T12:57:22.448Z,101998.67
2018-12-31T12:59:49.196Z,102003.67
2018-12-31T13:02:15.996Z,101999.59
2018-12-31T13:04:42.766Z,102004.33
2018-12-31T13:07:09.560Z,102006.55
2018-12-31T13:09:36.413Z,102012.09
2018-12-31T13:12:03.196Z,102009.42
2018-12-31T13:14:29.990Z,102012.77
2018-12-31T13:16:56.772Z,102006.66
2018-12-31T13:19:23.532Z,102007.84
2018-12-31T13:21:50.490Z,102007.77
2018-12-31T13:24:18.897Z,102003.91
2018-12-31T13:26:44.033Z,102005.00
2018-12-31T13:29:10.768Z,102010.00
2018-12-31T13:31:37.558Z,102011.67
2018-12-31T13:34:04.298Z,102005.75
2018-12-31T13:36:31.063Z,102003.88
2018-12-31T13:38:57.900Z,102011.94
2018-12-31T13:41:24.709Z,102010.67
2018-12-31T13:43:51.480Z,102013.86
2018-12-31T13:46:18.251Z,102009.72
2018-12-31T13:48:44.990Z,102009.52
2018-12-31T13:51:11.749Z,102007.49
2018-12-31T13:53:38.522Z,102007.84
2018-12-31T13:56:05.281Z,102006.45
2018-12-31T13:58:32.017Z,102010.01
2018-12-31T14:00:58.764Z,102018.78
2018-12-31T14:03:25.528Z,102019.50
2018-12-31T14:05:52.280Z,102014.70
2018-12-31T14:08:19.052Z,102016.23
2018-12-31T14:10:45.784Z,102012.10
2018-12-31T14:13:12.551Z,102010.27
2018-12-31T14:15:39.293Z,102008.88
2018-12-31T14:18:06.056Z,102018.55
2018-12-31T14:20:32.808Z,102015.19
2018-12-31T14:22:59.593Z,102019.03
2018-12-31T14:25:26.349Z,102020.77
2018-12-31T14:27:53.122Z,102028.28
2018-12-31T14:30:19.876Z,102029.55
2018-12-31T14:32:46.664Z,102032.47
2018-12-31T14:35:13.412Z,102029.98
2018-12-31T14:37:40.185Z,102036.25
2018-12-31T14:40:07.314Z,102034.41
2018-12-31T14:42:34.126Z,102038.20
2018-12-31T14:45:00.885Z,102046.94
2018-12-31T14:47:27.654Z,102041.42
2018-12-31T14:49:54.736Z,102052.40
2018-12-31T14:52:21.532Z,102051.22
2018-12-31T14:54:48.317Z,102050.56
2018-12-31T14:57:15.089Z,102057.28
2018-12-31T14:59:41.838Z,102051.82
2018-12-31T15:02:08.597Z,102047.55
2018-12-31T15:04:35.360Z,102047.22
2018-12-31T15:07:02.116Z,102057.16
2018-12-31T15:09:28.856Z,102053.84
2018-12-31T15:11:55.617Z,102052.31
2018-12-31T15:14:22.396Z,102054.39
2018-12-31T15:16:49.149Z,102056.20
2018-12-31T15:19:15.916Z,102065.16
2018-12-31T15:21:42.681Z,102060.31
2018-12-31T15:24:09.463Z,102068.10
2018-12-31T15:26:36.205Z,102071.27
2018-12-31T15:29:03.010Z,102069.11
2018-12-31T15:31:29.754Z,102067.43
2018-12-31T15:33:56.705Z,102072.45
2018-12-31T15:36:23.636Z,102067.13
2018-12-31T15:38:50.397Z,102075.87
2018-12-31T15:41:17.138Z,102066.18
2018-12-31T15:43:43.940Z,102066.47
2018-12-31T15:46:10.684Z,102062.00
2018-12-31T15:48:37.448Z,102066.18
2018-12-31T15:51:04.222Z,102065.01
2018-12-31T15:53:30.990Z,102059.83
2018-12-31T15:55:58.718Z,102060.00
2018-12-31T15:58:24.520Z,102053.41
2018-12-31T16:00:52.004Z,102058.04
2018-12-31T16:03:18.764Z,102060.63
2018-12-31T16:05:45.554Z,102065.32
2018-12-31T16:08:12.421Z,102065.89
2018-12-31T16:10:39.149Z,102073.62
2018-12-31T16:13:05.936Z,102065.98
2018-12-31T16:15:32.685Z,102070.84
2018-12-31T16:17:59.448Z,102076.23
2018-12-31T16:20:26.224Z,102070.52
2018-12-31T16:22:52.984Z,102070.98
2018-12-31T16:25:19.736Z,102076.16
2018-12-31T16:27:46.492Z,102077.08
2018-12-31T16:30:13.261Z,102076.08
2018-12-31T16:32:40.004Z,102079.70
2018-12-31T16:35:06.761Z,102077.91
2018-12-31T16:37:33.509Z,102075.27
2018-12-31T16:40:00.280Z,102075.58
2018-12-31T16:42:27.025Z,102081.11
2018-12-31T16:44:53.793Z,102073.27
2018-12-31T16:47:20.531Z,102070.23
2018-12-31T16:49:47.308Z,102072.86
2018-12-31T16:52:14.077Z,102072.56
2018-12-31T16:54:40.836Z,102071.23
2018-12-31T16:57:07.588Z,102072.56
2018-12-31T16:59:34.352Z,102074.32
2018-12-31T17:02:01.096Z,102068.69
2018-12-31T17:04:27.956Z,102066.64
2018-12-31T17:06:54.696Z,102066.42
2018-12-31T17:09:21.473Z,102071.52
2018-12-31T17:11:48.216Z,102070.73
2018-12-31T17:14:14.992Z,102068.36
2018-12-31T17:16:41.733Z,102069.14
2018-12-31T17:19:08.498Z,102072.06
2018-12-31T17:21:35.239Z,102077.16
2018-12-31T17:24:02.012Z,102073.72
2018-12-31T17:26:28.767Z,102070.85
2018-12-31T17:28:55.549Z,102081.17
2018-12-31T17:31:22.293Z,102080.04
2018-12-31T17:33:49.044Z,102080.33
2018-12-31T17:36:15.796Z,102084.78
2018-12-31T17:38:42.564Z,102077.58
2018-12-31T17:41:09.324Z,102077.85
2018-12-31T17:43:36.101Z,102082.11
2018-12-31T17:46:02.931Z,102075.42
2018-12-31T17:48:29.804Z,102073.45
2018-12-31T17:50:56.683Z,102069.04
2018-12-31T17:53:23.429Z,102070.44
2018-12-31T17:55:50.197Z,102077.23
2018-12-31T17:58:16.949Z,102076.80
2018-12-31T18:00:43.728Z,102081.72
2018-12-31T18:05:37.992Z,102085.91
2018-12-31T18:08:04.749Z,102079.45
2018-12-31T18:10:31.520Z,102077.61
2018-12-31T18:12:58.280Z,102075.16
2018-12-31T18:15:25.042Z,102077.85
2018-12-31T18:17:51.788Z,102079.53
2018-12-31T18:20:18.545Z,102080.67
2018-12-31T18:22:45.315Z,102080.58
2018-12-31T18:25:12.076Z,102081.72
2018-12-31T18:27:38.829Z,102083.94
2018-12-31T18:30:07.204Z,102093.31
2018-12-31T18:32:33.959Z,102093.23
2018-12-31T18:35:00.723Z,102100.73
2018-12-31T18:37:27.472Z,102092.31
2018-12-31T18:39:58.213Z,102091.30
2018-12-31T18:42:20.969Z,102096.73
2018-12-31T18:44:47.740Z,102095.50
2018-12-31T18:47:14.472Z,102096.09
2018-12-31T18:49:41.244Z,102102.02
2018-12-31T18:52:07.993Z,102105.61
2018-12-31T18:54:34.805Z,102100.12
2018-12-31T18:57:01.498Z,102105.09
2018-12-31T18:59:28.269Z,102107.51
2018-12-31T19:01:55.020Z,102112.16
2018-12-31T19:04:21.777Z,102113.69
2018-12-31T19:06:48.520Z,102118.63
2018-12-31T19:09:15.272Z,102122.56
2018-12-31T19:11:42.128Z,102120.08
2018-12-31T19:14:08.884Z,102126.36
2018-12-31T19:16:35.652Z,102123.34
2018-12-31T19:19:02.409Z,102122.34
2018-12-31T19:21:29.176Z,102116.89
2018-12-31T19:23:55.917Z,102125.86
2018-12-31T19:26:22.688Z,102121.21
2018-12-31T19:28:49.428Z,102116.42
2018-12-31T19:31:16.194Z,102114.50
2018-12-31T19:33:42.925Z,102108.13
2018-12-31T19:36:09.692Z,102112.45
2018-12-31T19:38:36.438Z,102112.92
2018-12-31T19:41:03.206Z,102118.30
2018-12-31T19:43:29.952Z,102116.04
2018-12-31T19:45:56.716Z,102116.67
2018-12-31T19:48:23.461Z,102113.38
2018-12-31T19:50:50.240Z,102113.84
2018-12-31T19:53:16.986Z,102103.86
2018-12-31T19:55:43.746Z,102102.97
2018-12-31T19:58:10.497Z,102093.81
2018-12-31T20:00:37.257Z,102095.97
2018-12-31T20:03:03.992Z,102098.63
2018-12-31T20:05:30.757Z,102090.27
2018-12-31T20:07:57.509Z,102086.21
2018-12-31T20:10:24.270Z,102075.72
2018-12-31T20:12:51.009Z,102080.19
2018-12-31T20:15:17.759Z,102078.39
2018-12-31T20:17:44.540Z,102080.73
2018-12-31T20:20:11.281Z,102077.25
2018-12-31T20:22:38.048Z,102068.09
2018-12-31T20:25:04.804Z,102074.03
2018-12-31T20:27:31.585Z,102077.02
2018-12-31T20:29:58.321Z,102073.52
2018-12-31T20:32:25.081Z,102063.86
2018-12-31T20:34:51.824Z,102062.41
2018-12-31T20:37:18.608Z,102070.77
2018-12-31T20:39:45.349Z,102066.67
2018-12-31T20:42:12.114Z,102069.86
2018-12-31T20:44:38.851Z,102070.76
2018-12-31T20:47:05.617Z,102068.05
2018-12-31T20:49:32.360Z,102058.84
2018-12-31T20:51:59.109Z,102067.73
2018-12-31T20:54:25.856Z,102059.30
2018-12-31T20:56:52.620Z,102060.82
2018-12-31T20:59:19.386Z,102058.45
2018-12-31T21:01:46.148Z,102057.84
2018-12-31T21:04:12.897Z,102052.43
2018-12-31T21:06:39.672Z,102051.32
2018-12-31T21:09:07.120Z,102051.89
2018-12-31T21:11:35.017Z,102044.51
2018-12-31T21:14:01.793Z,102047.71
2018-12-31T21:16:28.564Z,102042.51
2018-12-31T21:18:55.304Z,102041.22
2018-12-31T21:21:22.077Z,102039.50
2018-12-31T21:23:48.816Z,102041.09
2018-12-31T21:26:15.580Z,102037.88
2018-12-31T21:28:42.321Z,102038.47
2018-12-31T21:31:09.064Z,102040.04
2018-12-31T21:33:35.823Z,102036.45
2018-12-31T21:36:02.572Z,102037.05
2018-12-31T21:38:29.329Z,102039.11
2018-12-31T21:40:56.077Z,102035.12
2018-12-31T21:43:22.836Z,102031.70
2018-12-31T21:45:49.580Z,102025.31
2018-12-31T21:48:16.351Z,102036.91
2018-12-31T21:50:43.089Z,102036.58
2018-12-31T21:53:09.856Z,102037.88
2018-12-31T21:55:36.604Z,102044.72
2018-12-31T21:58:03.370Z,102036.41
2018-12-31T22:00:30.116Z,102033.86
2018-12-31T22:02:57.395Z,102035.58
2018-12-31T22:05:23.672Z,102040.63
2018-12-31T22:07:50.438Z,102037.31
2018-12-31T22:10:17.293Z,102037.69
2018-12-31T22:12:44.052Z,102033.65
2018-12-31T22:15:10.797Z,102041.78
2018-12-31T22:17:37.573Z,102041.87
2018-12-31T22:20:05.284Z,102042.86
2018-12-31T22:22:32.053Z,102040.33
2018-12-31T22:24:58.802Z,102040.51
2018-12-31T22:27:25.577Z,102040.92
2018-12-31T22:29:52.316Z,102044.22
2018-12-31T22:32:19.095Z,102040.11
2018-12-31T22:34:45.840Z,102038.04
2018-12-31T22:37:12.597Z,102037.05
2018-12-31T22:39:39.354Z,102040.79
2018-12-31T22:42:06.117Z,102047.63
2018-12-31T22:44:32.848Z,102032.48
2018-12-31T22:46:59.614Z,102032.70
2018-12-31T22:49:26.356Z,102026.23
2018-12-31T22:51:53.116Z,102028.73
2018-12-31T22:54:19.873Z,102033.62
2018-12-31T22:56:46.633Z,102027.15
2018-12-31T22:59:13.386Z,102030.27
2018-12-31T23:01:40.127Z,102033.61
2018-12-31T23:04:06.901Z,102027.44
2018-12-31T23:06:34.020Z,102027.52
2018-12-31T23:09:00.933Z,102026.56
2018-12-31T23:11:27.681Z,102024.11
2018-12-31T23:13:54.464Z,102025.23
2018-12-31T23:16:23.813Z,102025.94
2018-12-31T23:18:50.604Z,102020.30
2018-12-31T23:21:17.486Z,102022.02
2018-12-31T23:23:44.248Z,102011.83
2018-12-31T23:26:10.985Z,102005.48
2018-12-31T23:28:37.749Z,102016.16
2018-12-31T23:31:04.496Z,102013.16
2018-12-31T23:33:31.260Z,102015.00
2018-12-31T23:35:58.011Z,102022.30
2018-12-31T23:38:24.767Z,102023.22
2018-12-31T23:40:51.540Z,102014.45
2018-12-31T23:43:18.312Z,102016.50
2018-12-31T23:45:45.060Z,102022.84
2018-12-31T23:48:11.832Z,102016.08
2018-12-31T23:50:38.590Z,102016.99
2018-12-31T23:53:05.373Z,102022.93
2018-12-31T23:55:32.109Z,102020.59
2018-12-31T23:57:58.879Z,102016.50
